createdAt,value
2023-05-11T00:00:14.430Z,15.60
2023-05-11T00:02:41.205Z,15.77
2023-05-11T00:05:08.299Z,15.75
2023-05-11T00:07:35.043Z,14.95
2023-05-11T00:10:01.804Z,17.08
2023-05-11T00:12:28.531Z,18.20
2023-05-11T00:14:55.229Z,16.85
2023-05-11T00:17:22.077Z,16.05
2023-05-11T00:19:48.822Z,16.58
2023-05-11T00:22:16.933Z,15.05
2023-05-11T00:24:43.648Z,15.65
2023-05-11T00:27:11.579Z,15.52
2023-05-11T00:29:38.262Z,15.00
2023-05-11T00:32:06.229Z,15.93
2023-05-11T00:34:32.979Z,15.65
2023-05-11T00:37:00.997Z,15.20
2023-05-11T00:39:28.580Z,14.93
2023-05-11T00:41:55.257Z,14.98
2023-05-11T00:44:23.177Z,14.73
2023-05-11T00:46:49.987Z,15.48
2023-05-11T00:49:16.781Z,15.70
2023-05-11T00:51:43.913Z,15.38
2023-05-11T00:54:11.103Z,16.15
2023-05-11T00:56:37.787Z,15.15
2023-05-11T00:59:04.606Z,14.75
2023-05-11T01:01:31.298Z,15.77
2023-05-11T01:03:58.063Z,15.38
2023-05-11T01:07:00.800Z,15.65
2023-05-11T01:10:00.701Z,14.60
2023-05-11T01:12:47.038Z,15.40
2023-05-11T01:15:39.573Z,16.35
2023-05-11T01:18:21.463Z,17.40
2023-05-11T01:20:53.253Z,20.45
2023-05-11T01:23:44.759Z,21.42
2023-05-11T01:26:35.503Z,20.95
2023-05-11T01:29:08.070Z,20.25
2023-05-11T01:31:36.334Z,19.50
2023-05-11T01:34:09.758Z,18.75
2023-05-11T01:36:44.331Z,17.52
2023-05-11T01:39:13.587Z,18.52
2023-05-11T01:41:42.678Z,18.20
2023-05-11T01:44:10.937Z,17.65
2023-05-11T01:46:37.670Z,17.13
2023-05-11T01:49:06.974Z,17.67
2023-05-11T01:51:36.780Z,16.65
2023-05-11T01:54:10.031Z,16.40
2023-05-11T01:56:43.294Z,16.85
2023-05-11T01:59:16.342Z,16.63
2023-05-11T02:01:45.775Z,16.55
2023-05-11T02:04:16.112Z,17.23
2023-05-11T02:06:47.927Z,17.38
2023-05-11T02:09:17.623Z,16.60
2023-05-11T02:11:49.428Z,15.93
2023-05-11T02:14:23.537Z,16.70
2023-05-11T02:16:52.132Z,17.05
2023-05-11T02:19:20.065Z,16.05
2023-05-11T02:21:51.670Z,16.75
2023-05-11T02:24:21.518Z,15.93
2023-05-11T02:26:49.474Z,15.95
2023-05-11T02:29:19.802Z,15.85
2023-05-11T02:32:03.371Z,15.75
2023-05-11T02:34:38.912Z,15.13
2023-05-11T02:37:15.292Z,13.95
2023-05-11T02:39:46.271Z,13.98
2023-05-11T02:42:25.009Z,14.25
2023-05-11T02:45:03.344Z,14.40
2023-05-11T02:47:35.841Z,13.40
2023-05-11T02:50:04.803Z,12.60
2023-05-11T02:52:33.320Z,11.82
2023-05-11T02:55:02.535Z,11.75
2023-05-11T02:57:30.443Z,12.30
2023-05-11T03:00:00.776Z,11.63
2023-05-11T03:02:27.980Z,11.95
2023-05-11T03:04:54.703Z,11.70
2023-05-11T03:07:21.925Z,12.13
2023-05-11T03:09:48.921Z,12.45
2023-05-11T03:12:16.092Z,12.23
2023-05-11T03:14:46.470Z,12.30
2023-05-11T03:17:14.757Z,12.45
2023-05-11T03:19:42.153Z,11.63
2023-05-11T03:22:10.688Z,11.68
2023-05-11T03:24:38.923Z,12.00
2023-05-11T03:27:07.748Z,11.20
2023-05-11T03:29:39.183Z,11.65
2023-05-11T03:32:06.127Z,10.93
2023-05-11T03:34:34.041Z,10.25
2023-05-11T03:37:03.978Z,10.55
2023-05-11T03:39:35.755Z,11.00
2023-05-11T03:42:04.746Z,11.95
2023-05-11T03:44:35.984Z,10.45
2023-05-11T03:47:05.387Z,10.68
2023-05-11T03:49:36.241Z,11.18
2023-05-11T03:52:07.244Z,10.93
2023-05-11T03:54:39.905Z,11.65
2023-05-11T03:57:17.085Z,11.55
2023-05-11T03:59:47.458Z,10.05
2023-05-11T04:02:18.029Z,10.55
2023-05-11T04:04:51.230Z,10.80
2023-05-11T04:07:22.106Z,10.20
2023-05-11T04:09:52.572Z,9.90
2023-05-11T04:12:24.597Z,9.45
2023-05-11T04:14:51.304Z,9.70
2023-05-11T04:17:21.850Z,9.43
2023-05-11T04:19:49.781Z,9.73
2023-05-11T04:22:16.501Z,9.68
2023-05-11T04:24:43.498Z,9.65
2023-05-11T04:27:11.353Z,9.23
2023-05-11T04:29:39.340Z,10.32
2023-05-11T04:32:10.591Z,10.43
2023-05-11T04:34:38.848Z,9.07
2023-05-11T04:37:08.824Z,9.40
2023-05-11T04:39:38.508Z,9.55
2023-05-11T04:42:05.468Z,9.15
2023-05-11T04:44:32.174Z,9.32
2023-05-11T04:46:58.929Z,8.75
2023-05-11T04:49:25.884Z,8.57
2023-05-11T04:51:52.609Z,8.05
2023-05-11T04:54:19.821Z,8.23
2023-05-11T04:56:46.581Z,8.48
2023-05-11T04:59:13.233Z,7.70
2023-05-11T05:01:40.129Z,7.88
2023-05-11T05:04:07.052Z,8.73
2023-05-11T05:06:35.126Z,8.20
2023-05-11T05:09:01.922Z,8.00
2023-05-11T05:11:30.079Z,7.70
2023-05-11T05:13:58.353Z,7.40
2023-05-11T05:16:25.450Z,7.55
2023-05-11T05:18:53.465Z,7.05
2023-05-11T05:21:20.496Z,7.75
2023-05-11T05:23:47.487Z,7.22
2023-05-11T05:26:14.538Z,7.68
2023-05-11T05:28:43.294Z,7.35
2023-05-11T05:31:10.106Z,7.47
2023-05-11T05:33:37.016Z,7.30
2023-05-11T05:36:04.043Z,7.18
2023-05-11T05:38:31.005Z,7.43
2023-05-11T05:40:57.676Z,7.80
2023-05-11T05:43:24.685Z,7.72
2023-05-11T05:45:51.706Z,7.50
2023-05-11T05:48:19.737Z,8.32
2023-05-11T05:50:47.246Z,7.50
2023-05-11T05:53:15.247Z,6.47
2023-05-11T05:55:42.397Z,6.80
2023-05-11T05:58:10.939Z,7.03
2023-05-11T06:00:37.719Z,6.60
2023-05-11T06:03:05.901Z,6.85
2023-05-11T06:05:42.927Z,6.72
2023-05-11T06:08:11.591Z,6.53
2023-05-11T06:10:40.378Z,6.68
2023-05-11T06:13:09.085Z,6.18
2023-05-11T06:15:35.878Z,6.60
2023-05-11T06:18:02.730Z,6.25
2023-05-11T06:20:31.511Z,6.10
2023-05-11T06:22:58.218Z,5.88
2023-05-11T06:25:25.073Z,5.90
2023-05-11T06:27:52.221Z,6.30
2023-05-11T06:30:19.315Z,5.90
2023-05-11T06:32:52.474Z,5.72
2023-05-11T06:35:20.675Z,6.30
2023-05-11T06:37:47.707Z,5.70
2023-05-11T06:40:14.640Z,5.95
2023-05-11T06:42:41.693Z,5.85
2023-05-11T06:45:09.228Z,6.47
2023-05-11T06:47:36.276Z,5.70
2023-05-11T06:50:03.365Z,5.28
2023-05-11T06:52:30.155Z,5.82
2023-05-11T06:54:57.926Z,5.45
2023-05-11T06:57:24.743Z,4.90
2023-05-11T06:59:51.725Z,5.13
2023-05-11T07:02:19.852Z,5.20
2023-05-11T07:04:46.649Z,6.13
2023-05-11T07:07:14.795Z,4.80
2023-05-11T07:09:42.188Z,5.10
2023-05-11T07:12:10.158Z,5.10
2023-05-11T07:14:39.010Z,5.00
2023-05-11T07:17:06.140Z,5.00
2023-05-11T07:19:33.834Z,4.05
2023-05-11T07:22:00.519Z,4.20
2023-05-11T07:24:27.284Z,4.80
2023-05-11T07:26:54.159Z,5.32
2023-05-11T07:29:20.853Z,4.57
2023-05-11T07:31:47.716Z,3.75
2023-05-11T07:34:14.562Z,3.53
2023-05-11T07:36:41.323Z,3.65
2023-05-11T07:39:08.111Z,3.92
2023-05-11T07:41:34.853Z,3.83
2023-05-11T07:44:01.657Z,3.83
2023-05-11T07:46:29.563Z,3.97
2023-05-11T07:49:11.208Z,4.22
2023-05-11T07:51:43.427Z,4.10
2023-05-11T07:54:12.527Z,3.83
2023-05-11T07:56:40.708Z,3.47
2023-05-11T07:59:08.428Z,3.60
2023-05-11T08:01:36.562Z,3.72
2023-05-11T08:04:04.607Z,6.60
2023-05-11T08:06:31.239Z,4.18
2023-05-11T08:08:58.281Z,3.85
2023-05-11T08:11:25.060Z,3.33
2023-05-11T08:13:52.125Z,3.40
2023-05-11T08:16:18.896Z,3.58
2023-05-11T08:18:45.707Z,3.40
2023-05-11T08:21:12.705Z,3.05
2023-05-11T08:23:39.409Z,3.50
2023-05-11T08:26:06.468Z,3.53
2023-05-11T08:28:33.247Z,3.47
2023-05-11T08:31:01.435Z,3.60
2023-05-11T08:36:00.705Z,3.60
2023-05-11T08:38:28.982Z,3.33
2023-05-11T08:41:04.307Z,3.40
2023-05-11T08:43:37.081Z,3.72
2023-05-11T08:46:06.204Z,3.28
2023-05-11T08:48:34.369Z,3.55
2023-05-11T08:51:05.373Z,3.70
2023-05-11T08:53:35.547Z,3.60
2023-05-11T08:56:06.258Z,3.22
2023-05-11T08:58:40.401Z,3.15
2023-05-11T09:01:11.998Z,3.70
2023-05-11T09:03:41.892Z,3.38
2023-05-11T09:06:10.456Z,3.80
2023-05-11T09:08:40.613Z,3.40
2023-05-11T09:11:10.442Z,3.55
2023-05-11T09:13:39.509Z,3.90
2023-05-11T09:16:19.594Z,3.17
2023-05-11T09:19:00.341Z,2.78
2023-05-11T09:21:30.596Z,2.53
2023-05-11T09:24:00.276Z,2.67
2023-05-11T09:26:28.486Z,3.05
2023-05-11T09:29:03.423Z,3.10
2023-05-11T09:31:45.377Z,3.05
2023-05-11T09:34:20.740Z,2.95
2023-05-11T09:36:55.234Z,3.40
2023-05-11T09:39:44.082Z,3.10
2023-05-11T09:42:23.592Z,2.40
2023-05-11T09:44:51.399Z,3.45
2023-05-11T09:47:20.507Z,3.22
2023-05-11T09:49:49.164Z,2.53
2023-05-11T09:52:17.745Z,2.40
2023-05-11T09:54:48.016Z,2.78
2023-05-11T09:57:31.622Z,2.60
2023-05-11T09:59:59.969Z,3.08
2023-05-11T10:02:28.760Z,2.20
2023-05-11T10:04:59.309Z,2.70
2023-05-11T10:07:33.854Z,2.70
2023-05-11T10:10:07.822Z,2.10
2023-05-11T10:12:36.341Z,3.90
2023-05-11T10:15:05.641Z,3.63
2023-05-11T10:17:34.300Z,2.50
2023-05-11T10:20:02.547Z,2.67
2023-05-11T10:22:31.539Z,2.53
2023-05-11T10:25:00.125Z,2.58
2023-05-11T10:27:27.644Z,2.60
2023-05-11T10:29:56.122Z,3.00
2023-05-11T10:32:26.006Z,2.45
2023-05-11T10:34:52.800Z,2.50
2023-05-11T10:37:20.213Z,2.53
2023-05-11T10:39:49.948Z,2.40
2023-05-11T10:42:30.695Z,2.80
2023-05-11T10:45:07.891Z,2.50
2023-05-11T10:47:56.750Z,4.00
2023-05-11T10:51:05.126Z,3.10
2023-05-11T10:54:02.330Z,1.95
2023-05-11T10:57:00.390Z,2.80
2023-05-11T10:59:39.103Z,2.03
2023-05-11T11:02:07.892Z,2.38
2023-05-11T11:04:49.433Z,2.33
2023-05-11T11:07:18.729Z,2.08
2023-05-11T11:10:00.069Z,2.20
2023-05-11T11:12:28.069Z,2.28
2023-05-11T11:15:06.569Z,2.28
2023-05-11T11:17:36.940Z,2.30
2023-05-11T11:20:07.515Z,2.20
2023-05-11T11:22:37.395Z,2.80
2023-05-11T11:25:14.662Z,2.22
2023-05-11T11:27:41.474Z,2.25
2023-05-11T11:30:43.922Z,2.05
2023-05-11T11:33:31.391Z,1.92
2023-05-11T11:36:00.604Z,2.20
2023-05-11T11:38:29.561Z,2.38
2023-05-11T11:40:56.748Z,1.95
2023-05-11T11:43:28.456Z,2.50
2023-05-11T11:46:02.812Z,2.88
2023-05-11T11:48:30.918Z,2.30
2023-05-11T11:51:02.956Z,2.63
2023-05-11T11:53:39.041Z,2.70
2023-05-11T11:56:07.685Z,2.25
2023-05-11T11:58:46.325Z,2.45
2023-05-11T12:01:15.223Z,2.58
2023-05-11T12:03:44.724Z,2.63
2023-05-11T12:06:12.416Z,2.53
2023-05-11T12:08:42.959Z,1.90
2023-05-11T12:11:11.093Z,2.10
2023-05-11T12:13:39.496Z,2.22
2023-05-11T12:16:17.865Z,2.22
2023-05-11T12:18:59.196Z,1.90
2023-05-11T12:21:29.539Z,1.98
2023-05-11T12:23:58.963Z,1.80
2023-05-11T12:26:28.631Z,1.90
2023-05-11T12:29:12.547Z,1.75
2023-05-11T12:31:42.012Z,2.00
2023-05-11T12:34:19.616Z,2.10
2023-05-11T12:36:50.229Z,2.28
2023-05-11T12:39:25.969Z,2.10
2023-05-11T12:41:54.821Z,2.00
2023-05-11T12:44:23.806Z,1.83
2023-05-11T12:46:52.265Z,2.08
2023-05-11T12:52:00.012Z,2.10
2023-05-11T12:54:32.414Z,2.47
2023-05-11T12:57:00.385Z,2.30
2023-05-11T12:59:34.894Z,1.80
2023-05-11T13:02:13.548Z,2.05
2023-05-11T13:04:42.952Z,1.95
2023-05-11T13:07:12.202Z,2.00
2023-05-11T13:09:40.111Z,2.58
2023-05-11T13:12:19.582Z,2.13
2023-05-11T13:15:08.708Z,1.88
2023-05-11T13:17:40.449Z,1.85
2023-05-11T13:20:30.172Z,1.65
2023-05-11T13:23:06.089Z,1.85
2023-05-11T13:25:55.373Z,1.67
2023-05-11T13:28:23.655Z,1.65
2023-05-11T13:30:58.743Z,1.80
2023-05-11T13:33:25.527Z,2.20
2023-05-11T13:35:53.331Z,2.97
2023-05-11T13:38:21.592Z,1.58
2023-05-11T13:40:49.547Z,1.85
2023-05-11T13:43:17.581Z,1.70
2023-05-11T13:45:44.304Z,2.05
2023-05-11T13:48:11.366Z,1.88
2023-05-11T13:50:38.142Z,1.80
2023-05-11T13:53:04.898Z,2.15
2023-05-11T13:55:31.571Z,1.85
2023-05-11T13:57:58.297Z,1.90
2023-05-11T14:00:25.239Z,2.22
2023-05-11T14:02:52.867Z,2.10
2023-05-11T14:05:20.070Z,2.08
2023-05-11T14:07:49.161Z,2.28
2023-05-11T14:10:16.981Z,3.28
2023-05-11T14:12:45.551Z,2.03
2023-05-11T14:15:12.463Z,1.85
2023-05-11T14:17:41.668Z,1.98
2023-05-11T14:20:12.918Z,1.80
2023-05-11T14:22:41.635Z,2.03
2023-05-11T14:25:11.419Z,2.15
2023-05-11T14:27:38.101Z,2.30
2023-05-11T14:30:05.863Z,2.10
2023-05-11T14:32:32.787Z,4.22
2023-05-11T14:34:59.441Z,2.78
2023-05-11T14:37:26.257Z,1.77
2023-05-11T14:39:52.897Z,1.90
2023-05-11T14:42:19.693Z,1.77
2023-05-11T14:44:46.437Z,1.90
2023-05-11T14:47:15.123Z,1.85
2023-05-11T14:49:41.798Z,1.98
2023-05-11T14:52:09.935Z,1.88
2023-05-11T14:54:36.641Z,1.80
2023-05-11T14:57:05.288Z,1.80
2023-05-11T14:59:32.044Z,2.30
2023-05-11T15:02:00.471Z,1.83
2023-05-11T15:04:31.446Z,2.30
2023-05-11T15:07:01.803Z,2.25
2023-05-11T15:09:28.539Z,2.55
2023-05-11T15:11:55.313Z,1.83
2023-05-11T15:14:22.056Z,1.83
2023-05-11T15:16:48.808Z,1.85
2023-05-11T15:19:15.780Z,2.53
2023-05-11T15:21:42.679Z,2.38
2023-05-11T15:24:10.942Z,1.90
2023-05-11T15:26:38.023Z,2.30
2023-05-11T15:29:04.782Z,1.73
2023-05-11T15:31:31.476Z,2.17
2023-05-11T15:33:58.203Z,1.73
2023-05-11T15:36:25.973Z,2.00
2023-05-11T15:38:53.651Z,1.90
2023-05-11T15:41:21.044Z,1.80
2023-05-11T15:43:47.792Z,2.10
2023-05-11T15:46:14.582Z,2.13
2023-05-11T15:48:41.277Z,2.25
2023-05-11T15:51:08.056Z,2.88
2023-05-11T15:53:35.738Z,4.03
2023-05-11T15:56:02.521Z,3.15
2023-05-11T15:58:29.330Z,2.92
2023-05-11T16:00:57.354Z,2.38
2023-05-11T16:03:25.450Z,1.80
2023-05-11T16:05:52.648Z,1.90
2023-05-11T16:08:19.385Z,1.98
2023-05-11T16:10:46.347Z,2.10
2023-05-11T16:13:14.211Z,2.00
2023-05-11T16:15:41.000Z,1.77
2023-05-11T16:18:09.059Z,2.00
2023-05-11T16:20:35.796Z,1.85
2023-05-11T16:23:03.665Z,2.30
2023-05-11T16:25:30.847Z,2.58
2023-05-11T16:27:57.735Z,2.10
2023-05-11T16:30:25.689Z,1.85
2023-05-11T16:32:53.102Z,2.00
2023-05-11T16:35:20.403Z,2.40
2023-05-11T16:37:47.194Z,2.20
2023-05-11T16:40:13.946Z,1.92
2023-05-11T16:42:40.796Z,2.10
2023-05-11T16:45:07.894Z,2.30
2023-05-11T16:47:34.639Z,2.33
2023-05-11T16:50:01.466Z,2.90
2023-05-11T16:52:28.440Z,3.28
2023-05-11T16:54:56.912Z,2.60
2023-05-11T16:57:25.083Z,2.17
2023-05-11T16:59:52.028Z,2.47
2023-05-11T17:02:20.282Z,2.50
2023-05-11T17:04:47.248Z,2.50
2023-05-11T17:07:14.236Z,2.78
2023-05-11T17:09:41.338Z,2.65
2023-05-11T17:12:09.419Z,2.30
2023-05-11T17:14:36.616Z,2.95
2023-05-11T17:17:03.460Z,2.67
2023-05-11T17:19:30.734Z,3.13
2023-05-11T17:21:57.447Z,4.72
2023-05-11T17:24:25.242Z,2.65
2023-05-11T17:26:52.140Z,2.90
2023-05-11T17:29:20.231Z,2.35
2023-05-11T17:31:47.425Z,4.43
2023-05-11T17:34:14.910Z,2.75
2023-05-11T17:36:43.423Z,2.95
2023-05-11T17:39:13.881Z,3.97
2023-05-11T17:41:42.010Z,2.83
2023-05-11T17:44:08.920Z,2.72
2023-05-11T17:46:37.274Z,2.75
2023-05-11T17:49:08.593Z,2.25
2023-05-11T17:51:36.832Z,2.78
2023-05-11T17:54:05.173Z,2.55
2023-05-11T17:56:32.049Z,3.65
2023-05-11T17:58:58.753Z,3.15
2023-05-11T18:01:25.527Z,3.55
2023-05-11T18:03:52.482Z,3.10
2023-05-11T18:06:19.411Z,2.80
2023-05-11T18:08:46.295Z,3.80
2023-05-11T18:11:13.245Z,2.90
2023-05-11T18:13:39.995Z,4.10
2023-05-11T18:16:07.039Z,3.90
2023-05-11T18:18:34.235Z,3.45
2023-05-11T18:21:06.516Z,6.70
2023-05-11T18:23:34.964Z,4.88
2023-05-11T18:26:02.600Z,4.53
2023-05-11T18:28:30.193Z,3.90
2023-05-11T18:30:58.234Z,3.85
2023-05-11T18:33:27.449Z,3.85
2023-05-11T18:35:54.498Z,4.78
2023-05-11T18:38:21.241Z,4.03
2023-05-11T18:40:47.941Z,7.20
2023-05-11T18:43:14.680Z,4.53
2023-05-11T18:45:41.441Z,4.07
2023-05-11T18:48:08.405Z,5.13
2023-05-11T18:50:35.220Z,8.15
2023-05-11T18:53:02.307Z,5.45
2023-05-11T18:55:41.131Z,4.43
2023-05-11T18:58:16.136Z,4.05
2023-05-11T19:00:42.827Z,5.93
2023-05-11T19:03:09.668Z,6.93
2023-05-11T19:05:36.491Z,4.15
2023-05-11T19:08:03.241Z,4.15
2023-05-11T19:10:30.029Z,4.07
2023-05-11T19:12:56.792Z,4.65
2023-05-11T19:15:23.461Z,3.65
2023-05-11T19:17:51.438Z,4.13
2023-05-11T19:20:18.896Z,3.60
2023-05-11T19:22:46.953Z,4.30
2023-05-11T19:25:15.225Z,6.75
2023-05-11T19:27:51.101Z,5.70
2023-05-11T19:30:21.540Z,4.18
2023-05-11T19:32:50.740Z,4.30
2023-05-11T19:35:21.212Z,4.07
2023-05-11T19:37:47.880Z,5.80
2023-05-11T19:40:43.580Z,3.80
2023-05-11T19:43:05.876Z,6.57
2023-05-11T19:45:36.263Z,3.88
2023-05-11T19:48:07.725Z,3.58
2023-05-11T19:50:38.129Z,3.72
2023-05-11T19:53:06.484Z,3.72
2023-05-11T19:55:35.615Z,4.05
2023-05-11T19:58:03.186Z,3.70
2023-05-11T20:00:29.975Z,3.90
2023-05-11T20:02:56.720Z,4.20
2023-05-11T20:05:23.725Z,4.20
2023-05-11T20:07:50.429Z,3.22
2023-05-11T20:10:17.474Z,3.58
2023-05-11T20:12:44.431Z,3.58
2023-05-11T20:15:11.208Z,4.38
2023-05-11T20:17:37.956Z,3.80
2023-05-11T20:20:05.061Z,3.97
2023-05-11T20:22:31.744Z,3.90
2023-05-11T20:24:59.818Z,3.70
2023-05-11T20:27:27.953Z,4.15
2023-05-11T20:29:58.117Z,3.78
2023-05-11T20:32:24.928Z,3.97
2023-05-11T20:34:52.112Z,4.70
2023-05-11T20:37:19.146Z,3.80
2023-05-11T20:39:46.567Z,4.60
2023-05-11T20:42:13.566Z,4.40
2023-05-11T20:44:40.282Z,5.50
2023-05-11T20:47:08.798Z,3.90
2023-05-11T20:49:39.308Z,4.55
2023-05-11T20:52:07.511Z,3.92
2023-05-11T20:54:34.276Z,4.45
2023-05-11T20:57:01.715Z,3.70
2023-05-11T21:01:59.488Z,4.03
2023-05-11T21:04:26.318Z,3.95
2023-05-11T21:06:57.494Z,4.20
2023-05-11T21:09:24.209Z,4.88
2023-05-11T21:11:50.917Z,4.40
2023-05-11T21:14:17.676Z,3.95
2023-05-11T21:16:46.109Z,4.07
2023-05-11T21:19:12.857Z,4.25
2023-05-11T21:21:40.896Z,4.00
2023-05-11T21:24:10.366Z,4.40
2023-05-11T21:26:38.217Z,5.00
2023-05-11T21:29:06.362Z,4.55
2023-05-11T21:31:34.196Z,4.25
2023-05-11T21:34:01.017Z,4.40
2023-05-11T21:36:27.741Z,4.50
2023-05-11T21:38:54.449Z,4.55
2023-05-11T21:41:21.221Z,3.90
2023-05-11T21:43:49.045Z,4.15
2023-05-11T21:46:15.756Z,4.07
2023-05-11T21:48:43.864Z,4.82
2023-05-11T21:51:10.687Z,4.80
2023-05-11T21:53:38.988Z,4.03
2023-05-11T21:56:06.080Z,4.38
2023-05-11T21:58:32.773Z,4.28
2023-05-11T22:00:59.431Z,4.45
2023-05-11T22:03:26.295Z,4.47
2023-05-11T22:05:53.155Z,4.72
2023-05-11T22:08:19.830Z,4.70
2023-05-11T22:10:46.571Z,4.00
2023-05-11T22:13:13.286Z,4.90
2023-05-11T22:15:40.594Z,4.38
2023-05-11T22:18:07.387Z,4.85
2023-05-11T22:20:34.222Z,5.20
2023-05-11T22:23:00.965Z,4.35
2023-05-11T22:25:28.496Z,4.65
2023-05-11T22:27:56.435Z,4.60
2023-05-11T22:30:25.527Z,4.40
2023-05-11T22:32:55.714Z,4.68
2023-05-11T22:35:25.139Z,4.20
2023-05-11T22:37:51.849Z,4.40
2023-05-11T22:40:18.849Z,4.50
2023-05-11T22:42:45.754Z,4.70
2023-05-11T22:45:12.693Z,4.72
2023-05-11T22:47:39.532Z,4.80
2023-05-11T22:50:07.055Z,4.30
2023-05-11T22:52:33.711Z,4.75
2023-05-11T22:55:00.374Z,4.55
2023-05-11T22:57:27.087Z,4.75
2023-05-11T22:59:54.057Z,4.82
2023-05-11T23:02:20.923Z,4.65
2023-05-11T23:04:52.105Z,4.40
2023-05-11T23:07:20.135Z,5.00
2023-05-11T23:09:47.076Z,5.20
2023-05-11T23:12:15.055Z,4.70
2023-05-11T23:14:41.728Z,4.43
2023-05-11T23:17:08.503Z,5.20
2023-05-11T23:19:35.334Z,5.63
2023-05-11T23:22:02.145Z,4.80
2023-05-11T23:24:28.912Z,4.50
2023-05-11T23:26:55.577Z,4.93
2023-05-11T23:29:22.302Z,4.53
2023-05-11T23:31:49.124Z,4.90
2023-05-11T23:34:15.809Z,4.57
2023-05-11T23:36:42.608Z,4.95
2023-05-11T23:39:10.521Z,4.40
2023-05-11T23:41:46.844Z,4.97
2023-05-11T23:44:16.830Z,5.13
2023-05-11T23:46:47.007Z,5.22
2023-05-11T23:49:15.144Z,5.00
2023-05-11T23:51:42.247Z,5.22
2023-05-11T23:54:09.622Z,4.82
2023-05-11T23:56:36.358Z,4.65
2023-05-11T23:59:05.203Z,4.78
